createdAt,value
2023-02-27T00:01:21.470Z,14.70
2023-02-27T00:03:51.503Z,14.18
2023-02-27T00:06:19.707Z,13.85
2023-02-27T00:08:48.679Z,14.20
2023-02-27T00:11:17.520Z,13.70
2023-02-27T00:13:47.143Z,14.88
2023-02-27T00:16:20.131Z,14.02
2023-02-27T00:18:50.962Z,14.82
2023-02-27T00:21:21.851Z,14.13
2023-02-27T00:23:52.745Z,14.48
2023-02-27T00:26:25.475Z,11.73
2023-02-27T00:28:54.374Z,13.65
2023-02-27T00:31:23.774Z,13.52
2023-02-27T00:33:52.402Z,14.88
2023-02-27T00:36:22.938Z,13.98
2023-02-27T00:38:52.817Z,13.68
2023-02-27T00:41:23.741Z,13.25
2023-02-27T00:43:53.553Z,14.52
2023-02-27T00:46:23.717Z,14.30
2023-02-27T00:48:55.201Z,15.05
2023-02-27T00:51:25.806Z,14.98
2023-02-27T00:53:55.278Z,14.77
2023-02-27T00:56:28.108Z,15.25
2023-02-27T00:58:57.653Z,14.73
2023-02-27T01:01:25.999Z,13.60
2023-02-27T01:03:54.496Z,13.88
2023-02-27T01:06:22.855Z,14.10
2023-02-27T01:08:50.758Z,13.05
2023-02-27T01:11:23.359Z,14.80
2023-02-27T01:13:51.975Z,14.55
2023-02-27T01:16:19.981Z,15.27
2023-02-27T01:18:49.208Z,15.57
2023-02-27T01:21:17.547Z,14.75
2023-02-27T01:23:51.392Z,14.73
2023-02-27T01:26:20.793Z,14.85
2023-02-27T01:28:49.592Z,15.15
2023-02-27T01:31:17.704Z,15.30
2023-02-27T01:33:46.134Z,13.52
2023-02-27T01:36:14.251Z,13.60
2023-02-27T01:38:46.552Z,14.32
2023-02-27T01:41:16.500Z,13.27
2023-02-27T01:44:04.637Z,13.85
2023-02-27T01:46:33.648Z,13.63
2023-02-27T01:49:16.961Z,13.07
2023-02-27T01:51:51.648Z,13.30
2023-02-27T01:54:21.867Z,12.77
2023-02-27T01:56:53.436Z,12.88
2023-02-27T01:59:21.881Z,13.25
2023-02-27T02:01:51.492Z,12.73
2023-02-27T02:04:33.797Z,12.88
2023-02-27T02:07:07.425Z,13.95
2023-02-27T02:09:56.003Z,13.15
2023-02-27T02:12:32.169Z,13.77
2023-02-27T02:15:00.283Z,14.02
2023-02-27T02:17:41.361Z,13.45
2023-02-27T02:20:37.277Z,13.13
2023-02-27T02:23:26.478Z,13.77
2023-02-27T02:26:15.345Z,15.55
2023-02-27T02:29:06.124Z,14.35
2023-02-27T02:31:55.834Z,15.80
2023-02-27T02:34:50.463Z,14.25
2023-02-27T02:38:01.428Z,15.05
2023-02-27T02:40:36.237Z,14.95
2023-02-27T02:43:31.165Z,13.80
2023-02-27T02:46:08.378Z,14.32
2023-02-27T02:48:40.407Z,15.15
2023-02-27T02:51:22.968Z,14.57
2023-02-27T02:54:02.445Z,14.35
2023-02-27T02:56:57.904Z,14.55
2023-02-27T02:59:42.432Z,15.25
2023-02-27T03:02:16.565Z,15.65
2023-02-27T03:04:52.046Z,14.82
2023-02-27T03:07:36.377Z,15.48
2023-02-27T03:10:17.930Z,12.68
2023-02-27T03:12:52.270Z,11.32
2023-02-27T03:15:23.884Z,13.48
2023-02-27T03:18:07.356Z,13.45
2023-02-27T03:20:44.820Z,10.48
2023-02-27T03:23:23.765Z,11.63
2023-02-27T03:25:58.345Z,11.57
2023-02-27T03:28:31.605Z,12.32
2023-02-27T03:31:02.401Z,11.38
2023-02-27T03:33:39.756Z,11.68
2023-02-27T03:36:41.386Z,11.63
2023-02-27T03:39:41.318Z,11.30
2023-02-27T03:42:48.040Z,13.23
2023-02-27T03:45:43.435Z,13.68
2023-02-27T03:48:11.641Z,12.52
2023-02-27T03:50:39.742Z,14.30
2023-02-27T03:53:21.889Z,13.73
2023-02-27T03:55:50.033Z,13.90
2023-02-27T03:58:18.617Z,14.45
2023-02-27T04:01:06.452Z,14.30
2023-02-27T04:03:36.417Z,15.43
2023-02-27T04:06:28.452Z,14.77
2023-02-27T04:09:21.734Z,14.73
2023-02-27T04:12:11.097Z,15.65
2023-02-27T04:15:03.645Z,18.75
2023-02-27T04:17:32.713Z,19.77
2023-02-27T04:20:27.981Z,22.38
2023-02-27T04:23:05.641Z,20.52
2023-02-27T04:25:36.848Z,23.50
2023-02-27T04:28:17.500Z,23.17
2023-02-27T04:31:03.001Z,23.90
2023-02-27T04:33:48.090Z,24.98
2023-02-27T04:36:30.608Z,26.90
2023-02-27T04:39:09.480Z,26.55
2023-02-27T04:41:56.932Z,26.05
2023-02-27T04:44:25.271Z,24.63
2023-02-27T04:46:54.109Z,23.75
2023-02-27T04:49:42.553Z,25.35
2023-02-27T04:52:34.610Z,25.10
2023-02-27T04:55:13.940Z,23.65
2023-02-27T04:57:49.015Z,24.45
2023-02-27T05:00:20.147Z,26.00
2023-02-27T05:02:53.411Z,25.63
2023-02-27T05:05:24.574Z,24.05
2023-02-27T05:08:00.091Z,27.08
2023-02-27T05:10:36.635Z,26.52
2023-02-27T05:13:33.874Z,26.80
2023-02-27T05:16:23.440Z,29.50
2023-02-27T05:18:56.320Z,26.42
2023-02-27T05:21:36.887Z,28.45
2023-02-27T05:24:35.413Z,27.10
2023-02-27T05:27:16.060Z,30.35
2023-02-27T05:30:06.746Z,26.27
2023-02-27T05:32:58.194Z,32.17
2023-02-27T05:35:33.211Z,30.52
2023-02-27T05:38:06.035Z,31.40
2023-02-27T05:40:50.297Z,29.80
2023-02-27T05:43:27.902Z,32.05
2023-02-27T05:46:10.214Z,32.53
2023-02-27T05:48:46.646Z,33.08
2023-02-27T05:51:15.265Z,32.65
2023-02-27T05:53:46.552Z,33.47
2023-02-27T05:56:14.839Z,34.75
2023-02-27T05:58:54.541Z,33.58
2023-02-27T06:01:24.733Z,29.98
2023-02-27T06:03:54.408Z,30.48
2023-02-27T06:06:22.472Z,29.45
2023-02-27T06:08:50.485Z,29.13
2023-02-27T06:11:25.878Z,28.83
2023-02-27T06:13:55.032Z,30.02
2023-02-27T06:16:23.654Z,31.70
2023-02-27T06:18:52.029Z,29.60
2023-02-27T06:21:20.148Z,28.55
2023-02-27T06:23:51.055Z,30.08
2023-02-27T06:26:19.975Z,29.20
2023-02-27T06:28:48.013Z,29.80
2023-02-27T06:31:17.014Z,32.72
2023-02-27T06:33:44.928Z,33.22
2023-02-27T06:36:13.086Z,34.20
2023-02-27T06:38:41.797Z,37.35
2023-02-27T06:41:09.939Z,33.88
2023-02-27T06:43:38.671Z,34.95
2023-02-27T06:46:09.717Z,28.30
2023-02-27T06:48:38.450Z,30.92
2023-02-27T06:51:06.414Z,25.27
2023-02-27T06:53:34.679Z,23.98
2023-02-27T06:56:02.694Z,19.13
2023-02-27T06:58:31.830Z,17.63
2023-02-27T07:01:01.132Z,17.90
2023-02-27T07:03:29.240Z,18.05
2023-02-27T07:05:59.001Z,16.15
2023-02-27T07:08:28.596Z,16.95
2023-02-27T07:10:57.699Z,16.65
2023-02-27T07:13:28.223Z,17.17
2023-02-27T07:15:56.794Z,16.73
2023-02-27T07:18:26.370Z,17.27
2023-02-27T07:20:56.994Z,16.42
2023-02-27T07:23:25.490Z,18.48
2023-02-27T07:25:54.352Z,18.20
2023-02-27T07:28:22.454Z,18.63
2023-02-27T07:30:53.335Z,18.70
2023-02-27T07:33:23.990Z,17.83
2023-02-27T07:35:52.328Z,18.50
2023-02-27T07:38:22.544Z,21.58
2023-02-27T07:40:50.652Z,18.92
2023-02-27T07:43:19.262Z,20.17
2023-02-27T07:45:47.355Z,20.55
2023-02-27T07:48:16.436Z,18.95
2023-02-27T07:50:44.639Z,19.58
2023-02-27T07:53:13.566Z,18.92
2023-02-27T07:55:42.235Z,18.27
2023-02-27T07:58:11.899Z,16.55
2023-02-27T08:00:42.785Z,17.45
2023-02-27T08:03:10.930Z,18.77
2023-02-27T08:05:41.990Z,18.55
2023-02-27T08:08:11.586Z,18.15
2023-02-27T08:10:42.553Z,17.90
2023-02-27T08:13:11.183Z,18.33
2023-02-27T08:15:39.081Z,17.98
2023-02-27T08:18:26.078Z,18.73
2023-02-27T08:20:56.649Z,18.70
2023-02-27T08:23:26.941Z,19.15
2023-02-27T08:25:57.997Z,20.02
2023-02-27T08:28:26.862Z,20.70
2023-02-27T08:30:55.303Z,21.10
2023-02-27T08:33:23.906Z,20.35
2023-02-27T08:35:52.190Z,19.90
2023-02-27T08:38:21.154Z,20.58
2023-02-27T08:40:56.265Z,19.13
2023-02-27T08:43:24.729Z,18.77
2023-02-27T08:45:54.909Z,19.83
2023-02-27T08:48:25.003Z,19.92
2023-02-27T08:50:56.233Z,19.80
2023-02-27T08:53:28.060Z,18.92
2023-02-27T08:55:57.010Z,18.60
2023-02-27T08:58:25.638Z,17.20
2023-02-27T09:00:55.950Z,21.52
2023-02-27T09:03:29.020Z,18.85
2023-02-27T09:05:58.101Z,19.80
2023-02-27T09:08:37.221Z,17.77
2023-02-27T09:11:09.304Z,17.73
2023-02-27T09:13:37.630Z,17.90
2023-02-27T09:16:09.659Z,17.98
2023-02-27T09:18:39.063Z,18.75
2023-02-27T09:21:08.083Z,19.33
2023-02-27T09:24:02.533Z,18.42
2023-02-27T09:26:45.891Z,16.10
2023-02-27T09:29:17.166Z,18.48
2023-02-27T09:31:47.267Z,18.25
2023-02-27T09:34:15.762Z,17.58
2023-02-27T09:36:44.117Z,17.80
2023-02-27T09:39:15.859Z,16.70
2023-02-27T09:41:56.352Z,16.75
2023-02-27T09:44:39.822Z,17.33
2023-02-27T09:47:18.392Z,17.17
2023-02-27T09:50:03.999Z,22.27
2023-02-27T09:52:34.168Z,19.27
2023-02-27T09:55:03.075Z,20.38
2023-02-27T09:57:50.340Z,17.65
2023-02-27T10:00:44.253Z,16.55
2023-02-27T10:03:13.313Z,16.75
2023-02-27T10:05:47.962Z,18.15
2023-02-27T10:08:46.799Z,22.23
2023-02-27T10:11:17.662Z,19.73
2023-02-27T10:14:19.004Z,20.55
2023-02-27T10:16:50.641Z,21.50
2023-02-27T10:19:47.147Z,20.48
2023-02-27T10:22:21.837Z,21.63
2023-02-27T10:25:03.699Z,20.00
2023-02-27T10:27:33.220Z,20.90
2023-02-27T10:30:29.554Z,25.80
2023-02-27T10:33:20.611Z,25.13
2023-02-27T10:35:53.864Z,27.40
2023-02-27T10:38:38.159Z,28.85
2023-02-27T10:41:11.586Z,26.52
2023-02-27T10:43:42.517Z,27.42
2023-02-27T10:46:18.397Z,26.20
2023-02-27T10:48:47.585Z,23.77
2023-02-27T10:51:28.729Z,25.25
2023-02-27T10:54:19.281Z,25.75
2023-02-27T10:56:53.893Z,24.63
2023-02-27T10:59:37.573Z,25.55
2023-02-27T11:02:17.951Z,22.60
2023-02-27T11:04:57.673Z,22.27
2023-02-27T11:07:58.192Z,23.08
2023-02-27T11:10:29.229Z,22.88
2023-02-27T11:13:07.484Z,24.55
2023-02-27T11:15:38.391Z,29.08
2023-02-27T11:21:03.509Z,23.48
2023-02-27T11:23:34.017Z,22.27
2023-02-27T11:26:24.282Z,22.63
2023-02-27T11:29:15.229Z,22.83
2023-02-27T11:31:51.337Z,23.05
2023-02-27T11:34:41.972Z,23.65
2023-02-27T11:37:30.456Z,23.17
2023-02-27T11:40:34.701Z,25.85
2023-02-27T11:43:05.477Z,23.05
2023-02-27T11:46:17.064Z,22.33
2023-02-27T11:48:33.204Z,21.45
2023-02-27T11:51:17.251Z,20.92
2023-02-27T11:53:56.639Z,21.35
2023-02-27T11:56:51.007Z,20.00
2023-02-27T11:59:33.149Z,22.08
2023-02-27T12:02:10.259Z,22.73
2023-02-27T12:04:45.122Z,22.48
2023-02-27T12:07:20.710Z,22.52
2023-02-27T12:10:02.620Z,22.50
2023-02-27T12:12:49.708Z,21.58
2023-02-27T12:15:18.281Z,20.65
2023-02-27T12:17:49.973Z,20.70
2023-02-27T12:20:43.716Z,21.03
2023-02-27T12:23:52.410Z,21.35
2023-02-27T12:26:30.910Z,20.40
2023-02-27T12:29:23.323Z,19.80
2023-02-27T12:32:14.933Z,19.95
2023-02-27T12:34:50.772Z,20.67
2023-02-27T12:37:28.129Z,19.17
2023-02-27T12:40:02.578Z,22.03
2023-02-27T12:42:52.737Z,18.20
2023-02-27T12:45:46.897Z,16.17
2023-02-27T12:48:52.576Z,18.33
2023-02-27T12:51:48.255Z,15.88
2023-02-27T12:54:24.271Z,15.88
2023-02-27T12:59:39.190Z,16.90
2023-02-27T13:02:22.286Z,16.70
2023-02-27T13:05:04.537Z,15.95
2023-02-27T13:07:59.343Z,19.08
2023-02-27T13:11:04.279Z,16.50
2023-02-27T13:13:47.959Z,17.23
2023-02-27T13:16:32.613Z,16.00
2023-02-27T13:19:16.329Z,17.05
2023-02-27T13:22:08.876Z,17.50
2023-02-27T13:24:47.936Z,18.35
2023-02-27T13:27:27.650Z,16.58
2023-02-27T13:30:05.428Z,17.02
2023-02-27T13:33:11.764Z,15.85
2023-02-27T13:35:52.270Z,17.95
2023-02-27T13:38:51.458Z,18.98
2023-02-27T13:41:27.929Z,15.68
2023-02-27T13:44:00.472Z,15.50
2023-02-27T13:46:33.210Z,17.13
2023-02-27T13:49:05.863Z,16.48
2023-02-27T13:51:35.502Z,18.25
2023-02-27T13:54:13.855Z,17.77
2023-02-27T13:56:49.977Z,15.05
2023-02-27T13:59:25.772Z,17.55
2023-02-27T14:02:13.895Z,16.30
2023-02-27T14:04:58.338Z,15.25
2023-02-27T14:07:48.704Z,15.38
2023-02-27T14:10:25.607Z,16.73
2023-02-27T14:12:55.637Z,17.85
2023-02-27T14:15:26.338Z,16.27
2023-02-27T14:18:12.392Z,17.98
2023-02-27T14:20:44.158Z,17.05
2023-02-27T14:23:27.881Z,17.48
2023-02-27T14:25:58.220Z,15.23
2023-02-27T14:28:31.040Z,16.45
2023-02-27T14:31:09.232Z,14.93
2023-02-27T14:33:54.252Z,15.07
2023-02-27T14:36:23.726Z,13.05
2023-02-27T14:38:57.603Z,12.73
2023-02-27T14:41:54.828Z,12.52
2023-02-27T14:44:28.160Z,11.88
2023-02-27T14:46:59.591Z,14.00
2023-02-27T14:49:34.257Z,12.90
2023-02-27T14:52:12.764Z,13.15
2023-02-27T14:54:45.027Z,12.93
2023-02-27T14:57:20.952Z,11.88
2023-02-27T14:59:52.592Z,11.90
2023-02-27T15:02:30.680Z,10.65
2023-02-27T15:05:01.723Z,11.38
2023-02-27T15:07:31.827Z,11.80
2023-02-27T15:10:04.345Z,10.15
2023-02-27T15:12:39.032Z,10.82
2023-02-27T15:15:08.063Z,13.55
2023-02-27T15:17:39.960Z,12.07
2023-02-27T15:20:38.194Z,12.68
2023-02-27T15:23:28.413Z,13.23
2023-02-27T15:26:01.035Z,11.57
2023-02-27T15:28:38.268Z,14.02
2023-02-27T15:31:06.346Z,13.20
2023-02-27T15:33:36.887Z,12.45
2023-02-27T15:36:05.647Z,12.65
2023-02-27T15:38:35.093Z,12.65
2023-02-27T15:41:04.244Z,10.65
2023-02-27T15:43:32.782Z,10.88
2023-02-27T15:46:04.176Z,11.82
2023-02-27T15:48:35.121Z,10.05
2023-02-27T15:51:05.748Z,9.23
2023-02-27T15:53:36.041Z,9.85
2023-02-27T15:56:09.921Z,7.90
2023-02-27T15:59:00.518Z,8.77
2023-02-27T16:01:32.876Z,9.50
2023-02-27T16:04:06.603Z,9.57
2023-02-27T16:06:39.754Z,8.68
2023-02-27T16:09:22.857Z,8.00
2023-02-27T16:12:22.877Z,8.10
2023-02-27T16:14:56.741Z,9.55
2023-02-27T16:17:29.688Z,8.60
2023-02-27T16:20:00.744Z,9.05
2023-02-27T16:22:31.768Z,7.93
2023-02-27T16:25:20.606Z,8.45
2023-02-27T16:27:48.897Z,8.20
2023-02-27T16:30:23.087Z,8.70
2023-02-27T16:33:00.318Z,9.02
2023-02-27T16:35:30.728Z,8.88
2023-02-27T16:38:01.473Z,7.45
2023-02-27T16:40:31.490Z,8.25
2023-02-27T16:43:02.210Z,8.63
2023-02-27T16:45:32.473Z,8.65
2023-02-27T16:48:01.821Z,9.05
2023-02-27T16:50:42.136Z,8.98
2023-02-27T16:53:12.089Z,9.05
2023-02-27T16:55:42.033Z,8.82
2023-02-27T16:58:19.072Z,9.35
2023-02-27T17:00:50.597Z,9.48
2023-02-27T17:03:18.802Z,9.25
2023-02-27T17:05:51.264Z,9.52
2023-02-27T17:08:19.776Z,9.25
2023-02-27T17:10:47.919Z,8.63
2023-02-27T17:13:17.668Z,8.73
2023-02-27T17:15:46.594Z,8.30
2023-02-27T17:18:16.307Z,8.57
2023-02-27T17:20:44.511Z,8.40
2023-02-27T17:23:14.470Z,9.02
2023-02-27T17:25:43.828Z,8.32
2023-02-27T17:28:13.531Z,8.02
2023-02-27T17:30:42.075Z,8.18
2023-02-27T17:33:12.817Z,7.60
2023-02-27T17:35:41.882Z,7.57
2023-02-27T17:38:10.603Z,9.40
2023-02-27T17:41:09.854Z,7.85
2023-02-27T17:43:42.779Z,8.88
2023-02-27T17:46:14.818Z,8.98
2023-02-27T17:48:46.200Z,9.95
2023-02-27T17:51:17.098Z,9.45
2023-02-27T17:53:55.095Z,10.05
2023-02-27T17:56:23.354Z,8.52
2023-02-27T17:58:51.587Z,8.50
2023-02-27T18:01:23.001Z,9.75
2023-02-27T18:03:54.032Z,9.43
2023-02-27T18:06:22.832Z,8.75
2023-02-27T18:08:52.172Z,8.10
2023-02-27T18:11:21.045Z,8.80
2023-02-27T18:13:50.710Z,7.88
2023-02-27T18:16:19.112Z,27.50
2023-02-27T18:18:53.657Z,7.97
2023-02-27T18:21:25.363Z,7.65
2023-02-27T18:24:02.806Z,7.93
2023-02-27T18:26:36.905Z,8.35
2023-02-27T18:29:09.600Z,7.47
2023-02-27T18:31:43.636Z,6.78
2023-02-27T18:34:12.152Z,7.40
2023-02-27T18:36:43.793Z,7.72
2023-02-27T18:39:11.701Z,7.07
2023-02-27T18:41:40.081Z,7.82
2023-02-27T18:44:09.359Z,7.70
2023-02-27T18:46:38.562Z,7.63
2023-02-27T18:49:06.806Z,8.38
2023-02-27T18:51:35.945Z,8.30
2023-02-27T18:54:19.012Z,6.25
2023-02-27T18:56:48.687Z,6.80
2023-02-27T18:59:25.013Z,7.90
2023-02-27T19:01:53.947Z,6.95
2023-02-27T19:04:33.639Z,7.68
2023-02-27T19:07:03.726Z,5.75
2023-02-27T19:09:33.169Z,6.25
2023-02-27T19:12:05.510Z,9.30
2023-02-27T19:14:33.939Z,6.38
2023-02-27T19:17:02.992Z,6.78
2023-02-27T19:19:32.732Z,6.13
2023-02-27T19:22:01.524Z,6.38
2023-02-27T19:24:30.594Z,5.65
2023-02-27T19:27:02.341Z,7.47
2023-02-27T19:29:40.369Z,7.05
2023-02-27T19:32:09.266Z,6.68
2023-02-27T19:34:38.202Z,7.60
2023-02-27T19:37:26.601Z,7.45
2023-02-27T19:39:54.494Z,8.27
2023-02-27T19:42:22.543Z,8.20
2023-02-27T19:44:52.635Z,8.23
2023-02-27T19:47:21.194Z,8.43
2023-02-27T19:49:52.512Z,8.23
2023-02-27T19:52:20.633Z,6.65
2023-02-27T19:54:50.225Z,7.22
2023-02-27T19:57:22.609Z,7.68
2023-02-27T19:59:51.182Z,8.13
2023-02-27T20:02:21.547Z,7.47
2023-02-27T20:04:52.178Z,8.18
2023-02-27T20:07:22.197Z,6.82
2023-02-27T20:09:51.749Z,7.25
2023-02-27T20:12:20.595Z,6.10
2023-02-27T20:14:53.962Z,6.13
2023-02-27T20:17:23.476Z,6.47
2023-02-27T20:19:51.739Z,5.93
2023-02-27T20:22:29.090Z,5.93
2023-02-27T20:24:57.774Z,5.72
2023-02-27T20:27:29.178Z,6.32
2023-02-27T20:29:58.265Z,6.28
2023-02-27T20:32:27.925Z,5.80
2023-02-27T20:34:59.544Z,6.45
2023-02-27T20:37:33.382Z,6.05
2023-02-27T20:40:08.491Z,6.63
2023-02-27T20:42:37.157Z,7.63
2023-02-27T20:45:06.393Z,6.97
2023-02-27T20:47:35.641Z,6.45
2023-02-27T20:50:03.479Z,7.68
2023-02-27T20:52:32.398Z,7.72
2023-02-27T20:55:00.776Z,8.35
2023-02-27T20:57:30.564Z,8.75
2023-02-27T20:59:58.715Z,9.13
2023-02-27T21:02:30.901Z,8.60
2023-02-27T21:04:59.699Z,9.35
2023-02-27T21:07:28.192Z,9.80
2023-02-27T21:09:56.775Z,9.02
2023-02-27T21:12:29.624Z,10.00
2023-02-27T21:14:58.616Z,9.00
2023-02-27T21:17:26.599Z,8.73
2023-02-27T21:19:57.418Z,10.10
2023-02-27T21:22:34.802Z,10.50
2023-02-27T21:25:03.063Z,9.90
2023-02-27T21:27:31.859Z,10.90
2023-02-27T21:30:00.026Z,10.38
2023-02-27T21:32:28.145Z,9.57
2023-02-27T21:34:56.889Z,9.50
2023-02-27T21:37:30.600Z,10.07
2023-02-27T21:40:00.921Z,10.00
2023-02-27T21:42:35.326Z,10.23
2023-02-27T21:45:05.807Z,9.30
2023-02-27T21:47:35.871Z,10.48
2023-02-27T21:50:04.824Z,10.85
2023-02-27T21:52:33.878Z,11.55
2023-02-27T21:55:04.669Z,11.85
2023-02-27T21:57:32.686Z,14.27
2023-02-27T22:00:00.750Z,15.32
2023-02-27T22:02:29.939Z,15.43
2023-02-27T22:04:58.934Z,15.50
2023-02-27T22:07:27.272Z,17.08
2023-02-27T22:10:01.324Z,17.27
2023-02-27T22:12:30.527Z,19.65
2023-02-27T22:14:59.107Z,18.50
2023-02-27T22:17:27.134Z,20.73
2023-02-27T22:19:55.899Z,19.10
2023-02-27T22:22:27.524Z,20.05
2023-02-27T22:24:56.727Z,21.23
2023-02-27T22:27:24.878Z,23.13
2023-02-27T22:29:53.157Z,19.90
2023-02-27T22:32:21.389Z,22.30
2023-02-27T22:34:50.159Z,24.20
2023-02-27T22:37:20.052Z,24.00
2023-02-27T22:39:48.955Z,22.83
2023-02-27T22:42:37.584Z,22.15
2023-02-27T22:45:28.182Z,21.80
2023-02-27T22:47:57.978Z,22.20
2023-02-27T22:50:26.456Z,23.02
2023-02-27T22:52:54.534Z,25.85
2023-02-27T22:55:25.989Z,22.25
2023-02-27T22:57:56.629Z,22.63
2023-02-27T23:00:25.202Z,19.48
2023-02-27T23:02:56.079Z,20.55
2023-02-27T23:05:26.461Z,22.20
2023-02-27T23:07:56.070Z,22.33
2023-02-27T23:10:26.080Z,23.85
2023-02-27T23:13:27.899Z,20.42
2023-02-27T23:15:59.357Z,22.60
2023-02-27T23:18:27.702Z,20.73
2023-02-27T23:21:03.327Z,20.58
2023-02-27T23:23:36.876Z,19.83
2023-02-27T23:26:06.769Z,19.80
2023-02-27T23:28:39.976Z,18.80
2023-02-27T23:31:09.685Z,18.90
2023-02-27T23:33:37.912Z,22.23
2023-02-27T23:36:07.428Z,23.25
2023-02-27T23:38:35.424Z,23.65
2023-02-27T23:41:16.904Z,24.40
2023-02-27T23:43:45.330Z,20.92
2023-02-27T23:46:15.494Z,23.65
2023-02-27T23:48:44.161Z,24.23
2023-02-27T23:51:17.924Z,23.58
2023-02-27T23:53:47.099Z,25.63
2023-02-27T23:56:29.564Z,25.38
2023-02-27T23:59:03.355Z,24.77
